Time;durP1;ratioP1;P1;durP2;ratioP2;P2;SDS_P1;SDS_P2;PMS_P1;PMS_P2;Temp;Humidity;BMP_temperature;BMP_pressure;BME280_temperature;BME280_humidity;BME280_pressure;Samples;Min_cycle;Max_cycle;Signal;HPM_P1;HPM_P2
2021/09/15 00:02:16;;;;;;;31.25;27.77;;;;;;;;;;5114709;28;20052;-62
2021/09/15 00:05:02;;;;;;;32.80;29.60;;;;;;;;;;5114476;28;20127;-62
2021/09/15 00:07:47;;;;;;;31.65;28.52;;;;;;;;;;5114437;28;20051;-63
2021/09/15 00:10:32;;;;;;;31.63;28.27;;;;;;;;;;5114597;28;20051;-62
2021/09/15 00:13:17;;;;;;;30.67;27.65;;;;;;;;;;5114612;28;20051;-62
2021/09/15 00:16:03;;;;;;;33.45;29.95;;;;;;;;;;5114593;28;20056;-62
2021/09/15 00:18:48;;;;;;;34.20;30.55;;;;;;;;;;5114258;28;20052;-63
2021/09/15 00:21:33;;;;;;;33.40;30.15;;;;;;;;;;5114248;28;20055;-62
2021/09/15 00:24:19;;;;;;;33.95;30.35;;;;;;;;;;5113996;28;20047;-62
2021/09/15 00:27:04;;;;;;;35.13;31.40;;;;;;;;;;5114199;28;20127;-62
2021/09/15 00:29:49;;;;;;;35.67;31.20;;;;;;;;;;5114058;28;20051;-63
2021/09/15 00:32:35;;;;;;;34.65;31.15;;;;;;;;;;5098584;28;20059;-63
2021/09/15 00:35:20;;;;;;;34.30;30.85;;;;;;;;;;5113572;28;20126;-63
2021/09/15 00:38:06;;;;;;;34.65;31.33;;;;;;;;;;5113947;28;20293;-63
2021/09/15 00:40:51;;;;;;;35.80;32.00;;;;;;;;;;5113801;28;20052;-63
2021/09/15 00:43:56;;;;;;;35.95;32.33;;;;;;;;;;5113347;28;20051;-63
2021/09/15 00:46:43;;;;;;;35.25;31.45;;;;;;;;;;5098226;28;20130;-63
2021/09/15 00:49:28;;;;;;;37.22;33.38;;;;;;;;;;5097986;28;20047;-62
2021/09/15 00:52:14;;;;;;;36.88;33.05;;;;;;;;;;5113485;28;20498;-62
2021/09/15 00:55:00;;;;;;;37.38;33.47;;;;;;;;;;5113165;28;20421;-62
2021/09/15 00:57:47;;;;;;;38.47;34.63;;;;;;;;;;5113350;28;20124;-62
2021/09/15 01:00:34;;;;;;;39.33;35.13;;;;;;;;;;5097884;28;20502;-62
2021/09/15 01:03:22;;;;;;;40.25;35.90;;;;;;;;;;5097949;28;20055;-62
2021/09/15 01:06:09;;;;;;;41.47;36.97;;;;;;;;;;5097809;28;20413;-62
2021/09/15 01:08:58;;;;;;;44.53;39.75;;;;;;;;;;5084233;28;20055;-62
2021/09/15 01:11:44;;;;;;;42.28;37.83;;;;;;;;;;5097801;28;20468;-62
2021/09/15 01:14:39;;;;;;;42.17;36.75;;;;;;;;;;5097431;28;20039;-62
2021/09/15 01:17:46;;;;;;;49.72;41.40;;;;;;;;;;5101192;28;20055;-62
2021/09/15 01:20:58;;;;;;;50.65;42.38;;;;;;;;;;5112790;28;20047;-62
2021/09/15 01:24:01;;;;;;;47.30;39.80;;;;;;;;;;5112867;28;20051;-62
2021/09/15 01:27:10;;;;;;;46.55;41.00;;;;;;;;;;5097688;28;20055;-62
2021/09/15 01:29:58;;;;;;;50.65;42.00;;;;;;;;;;5097279;28;20510;-62
2021/09/15 01:32:50;;;;;;;46.65;40.38;;;;;;;;;;5084309;28;20060;-62
2021/09/15 01:35:37;;;;;;;45.25;40.28;;;;;;;;;;5097174;28;20052;-63
2021/09/15 01:38:22;;;;;;;47.15;41.15;;;;;;;;;;5097238;28;20052;-62
2021/09/15 01:41:08;;;;;;;53.28;45.03;;;;;;;;;;5096953;28;20052;-62
2021/09/15 01:43:54;;;;;;;62.05;49.47;;;;;;;;;;5082736;28;20146;-62
2021/09/15 01:46:39;;;;;;;61.67;49.63;;;;;;;;;;5112502;28;20501;-62
2021/09/15 01:49:24;;;;;;;57.92;47.80;;;;;;;;;;5097043;28;20063;-62
2021/09/15 01:52:10;;;;;;;55.58;47.88;;;;;;;;;;5112514;28;20082;-62
2021/09/15 01:54:55;;;;;;;69.05;53.00;;;;;;;;;;5096949;28;20051;-62
2021/09/15 01:57:40;;;;;;;64.78;50.63;;;;;;;;;;5112566;28;20051;-62
2021/09/15 02:00:54;;;;;;;69.65;52.55;;;;;;;;;;5097149;28;20047;-62
2021/09/15 02:03:58;;;;;;;68.20;53.90;;;;;;;;;;5112222;28;20083;-62
2021/09/15 02:07:21;;;;;;;75.85;57.33;;;;;;;;;;5009908;28;20046;-63
2021/09/15 02:10:36;;;;;;;81.70;60.78;;;;;;;;;;4999555;28;20504;-62
2021/09/15 02:13:23;;;;;;;78.45;57.92;;;;;;;;;;5096781;28;20505;-62
2021/09/15 02:16:08;;;;;;;86.55;63.95;;;;;;;;;;5112357;28;20055;-63
2021/09/15 02:18:54;;;;;;;86.68;63.33;;;;;;;;;;5096866;28;20055;-63
2021/09/15 02:21:54;;;;;;;87.63;64.07;;;;;;;;;;5095824;28;20056;-63
2021/09/15 02:25:01;;;;;;;82.30;64.25;;;;;;;;;;5096098;28;20056;-63
2021/09/15 02:28:05;;;;;;;81.20;62.63;;;;;;;;;;5112263;28;20051;-64
2021/09/15 02:31:11;;;;;;;76.55;59.53;;;;;;;;;;5096842;28;20043;-62
2021/09/15 02:34:17;;;;;;;78.82;60.10;;;;;;;;;;5096696;28;20086;-63
2021/09/15 02:37:21;;;;;;;87.18;62.80;;;;;;;;;;5112167;28;20051;-63
2021/09/15 02:40:18;;;;;;;89.25;63.22;;;;;;;;;;5096541;28;20122;-64
2021/09/15 02:43:17;;;;;;;83.53;62.53;;;;;;;;;;5111969;28;20501;-62
2021/09/15 02:46:22;;;;;;;87.50;62.30;;;;;;;;;;5111857;28;20043;-62
2021/09/15 02:49:30;;;;;;;85.07;62.28;;;;;;;;;;5112153;28;20055;-62
2021/09/15 02:52:35;;;;;;;93.47;64.18;;;;;;;;;;5111901;28;20048;-62
2021/09/15 02:55:37;;;;;;;86.40;63.85;;;;;;;;;;5100249;28;20059;-63
2021/09/15 02:58:41;;;;;;;87.55;60.53;;;;;;;;;;5115697;28;20059;-62
2021/09/15 03:01:39;;;;;;;95.55;66.10;;;;;;;;;;5100329;28;20059;-62
2021/09/15 03:04:38;;;;;;;95.07;63.95;;;;;;;;;;5099983;28;20055;-62
2021/09/15 03:07:38;;;;;;;86.57;61.28;;;;;;;;;;5100339;28;20055;-62
2021/09/15 03:10:23;;;;;;;87.70;61.90;;;;;;;;;;5100243;28;20059;-62
2021/09/15 03:13:09;;;;;;;104.75;66.65;;;;;;;;;;5100126;28;20067;-62
2021/09/15 03:15:54;;;;;;;98.20;65.20;;;;;;;;;;5099861;28;20509;-62
2021/09/15 03:18:39;;;;;;;90.75;65.03;;;;;;;;;;5099995;28;20118;-62
2021/09/15 03:21:24;;;;;;;108.90;66.45;;;;;;;;;;5100163;28;20052;-62
2021/09/15 03:24:10;;;;;;;90.57;63.38;;;;;;;;;;5099594;28;20055;-62
2021/09/15 03:26:55;;;;;;;114.13;68.97;;;;;;;;;;5099831;28;20412;-62
2021/09/15 03:29:41;;;;;;;110.93;69.15;;;;;;;;;;5099695;28;20047;-62
2021/09/15 03:32:26;;;;;;;119.40;71.72;;;;;;;;;;5099897;28;20052;-62
2021/09/15 03:35:11;;;;;;;128.50;74.18;;;;;;;;;;5099572;28;20118;-62
2021/09/15 03:37:57;;;;;;;112.25;70.80;;;;;;;;;;5114987;28;20051;-62
2021/09/15 03:40:42;;;;;;;129.93;74.65;;;;;;;;;;5099375;28;20048;-62
2021/09/15 03:43:28;;;;;;;116.28;70.40;;;;;;;;;;5099435;28;20052;-62
2021/09/15 03:46:13;;;;;;;123.22;72.60;;;;;;;;;;5082345;28;20043;-62
2021/09/15 03:49:01;;;;;;;130.07;72.25;;;;;;;;;;5113740;22;20052;-60
2021/09/15 03:51:48;;;;;;;118.57;71.68;;;;;;;;;;5114902;28;20126;-60
2021/09/15 03:54:35;;;;;;;137.57;77.50;;;;;;;;;;5114571;28;20048;-60
2021/09/15 03:57:20;;;;;;;131.23;73.93;;;;;;;;;;5099218;28;20051;-59
2021/09/15 04:00:06;;;;;;;141.13;76.55;;;;;;;;;;5099098;28;20052;-60
2021/09/15 04:02:57;;;;;;;167.47;76.37;;;;;;;;;;5114660;28;20070;-60
2021/09/15 04:05:47;;;;;;;129.52;71.63;;;;;;;;;;5103618;28;20048;-60
2021/09/15 04:08:34;;;;;;;162.05;78.35;;;;;;;;;;5130491;28;20058;-59
2021/09/15 04:11:20;;;;;;;162.05;78.82;;;;;;;;;;5103602;28;20085;-61
2021/09/15 04:14:07;;;;;;;181.07;85.10;;;;;;;;;;5116237;28;20062;-59
2021/09/15 04:16:52;;;;;;;165.98;84.40;;;;;;;;;;5115258;28;20087;-61
2021/09/15 04:19:37;;;;;;;164.10;85.38;;;;;;;;;;5099129;28;20056;-60
2021/09/15 04:22:23;;;;;;;200.52;90.63;;;;;;;;;;5127871;28;20058;-61
2021/09/15 04:34:05;;;;;;;409.67;106.45;;;;;;;;;;5098328;28;20055;-60
2021/09/15 04:37:06;;;;;;;363.50;100.32;;;;;;;;;;5100262;28;20405;-60
2021/09/15 04:39:56;;;;;;;208.25;87.93;;;;;;;;;;5098565;28;20054;-59
2021/09/15 04:42:41;;;;;;;193.60;85.93;;;;;;;;;;5099333;28;20052;-62
2021/09/15 04:45:28;;;;;;;895.45;110.80;;;;;;;;;;5096557;28;20529;-61
2021/09/15 04:48:13;;;;;;;1536.80;128.65;;;;;;;;;;5110084;28;20047;-61
2021/09/15 04:50:59;;;;;;;955.38;109.57;;;;;;;;;;5096658;28;20043;-60
2021/09/15 04:53:44;;;;;;;749.30;100.45;;;;;;;;;;5093591;28;20378;-62
2021/09/15 04:56:30;;;;;;;482.65;95.88;;;;;;;;;;5110569;28;20103;-61
2021/09/15 04:59:15;;;;;;;408.98;92.03;;;;;;;;;;5095934;28;20051;-61
2021/09/15 05:02:01;;;;;;;224.18;79.18;;;;;;;;;;5080408;28;20055;-62
2021/09/15 05:04:47;;;;;;;361.88;102.88;;;;;;;;;;5102527;28;20417;-60
2021/09/15 05:07:43;;;;;;;586.05;102.00;;;;;;;;;;5097796;28;20040;-61
2021/09/15 05:10:28;;;;;;;217.15;90.55;;;;;;;;;;5098837;28;20122;-60
2021/09/15 05:13:15;;;;;;;193.45;87.40;;;;;;;;;;5099381;28;20062;-61
2021/09/15 05:16:02;;;;;;;158.30;80.40;;;;;;;;;;5097042;28;20059;-60
2021/09/15 05:18:47;;;;;;;175.00;85.90;;;;;;;;;;5106352;28;20077;-61
2021/09/15 05:21:32;;;;;;;167.60;85.10;;;;;;;;;;5097305;28;20070;-60
2021/09/15 05:24:18;;;;;;;276.48;95.32;;;;;;;;;;5079352;28;20055;-60
2021/09/15 05:27:03;;;;;;;181.38;86.90;;;;;;;;;;5097403;28;20051;-61
2021/09/15 05:29:48;;;;;;;183.63;89.53;;;;;;;;;;5097574;28;20051;-60
2021/09/15 05:32:34;;;;;;;150.65;82.15;;;;;;;;;;5097588;28;20056;-61
2021/09/15 05:35:20;;;;;;;207.75;94.75;;;;;;;;;;5097207;28;20047;-60
2021/09/15 05:38:05;;;;;;;214.95;96.55;;;;;;;;;;5097489;28;20057;-60
2021/09/15 05:40:54;;;;;;;178.50;88.88;;;;;;;;;;5097438;28;20047;-60
2021/09/15 05:43:39;;;;;;;215.13;94.82;;;;;;;;;;5096971;28;20051;-60
2021/09/15 05:46:28;;;;;;;176.05;88.70;;;;;;;;;;5110665;28;20052;-62
2021/09/15 05:49:14;;;;;;;206.27;92.90;;;;;;;;;;5103066;28;20507;-60
2021/09/15 05:52:03;;;;;;;197.60;92.78;;;;;;;;;;5097945;28;20044;-61
2021/09/15 05:54:49;;;;;;;164.15;87.18;;;;;;;;;;5097165;28;20043;-60
2021/09/15 05:57:34;;;;;;;113.13;72.47;;;;;;;;;;5097192;28;20047;-61
2021/09/15 06:00:20;;;;;;;124.97;75.47;;;;;;;;;;5096963;28;20051;-60
2021/09/15 06:03:08;;;;;;;146.75;79.75;;;;;;;;;;5097084;28;20431;-61
2021/09/15 06:06:22;;;;;;;128.00;76.65;;;;;;;;;;5106543;28;20055;-60
2021/09/15 06:09:08;;;;;;;154.35;81.45;;;;;;;;;;5111369;28;20047;-62
2021/09/15 06:11:54;;;;;;;156.43;83.78;;;;;;;;;;5116294;28;20047;-61
2021/09/15 06:14:43;;;;;;;129.65;76.85;;;;;;;;;;5070395;28;20058;-59
2021/09/15 06:17:27;;;;;;;133.80;79.22;;;;;;;;;;5097098;28;20471;-60
2021/09/15 06:20:13;;;;;;;142.35;80.65;;;;;;;;;;5096951;28;20059;-59
2021/09/15 06:23:21;;;;;;;126.47;76.80;;;;;;;;;;5096867;28;20059;-61
2021/09/15 06:26:09;;;;;;;113.15;71.50;;;;;;;;;;5111330;28;20085;-60
2021/09/15 06:28:54;;;;;;;137.80;80.35;;;;;;;;;;5102977;28;20052;-61
2021/09/15 06:31:41;;;;;;;133.20;77.80;;;;;;;;;;5099163;28;20047;-59
2021/09/15 06:34:26;;;;;;;132.80;79.40;;;;;;;;;;5116309;28;20047;-60
2021/09/15 06:37:11;;;;;;;126.30;76.65;;;;;;;;;;5116342;28;20097;-59
2021/09/15 06:39:57;;;;;;;139.73;79.00;;;;;;;;;;5116240;28;20064;-59
2021/09/15 06:42:42;;;;;;;144.23;79.90;;;;;;;;;;5116267;28;20063;-60
2021/09/15 06:45:27;;;;;;;163.10;84.68;;;;;;;;;;5116205;28;20056;-60
2021/09/15 06:48:14;;;;;;;158.50;81.93;;;;;;;;;;5115997;28;20067;-60
2021/09/15 06:50:59;;;;;;;150.50;82.18;;;;;;;;;;5116387;28;20051;-60
2021/09/15 06:53:47;;;;;;;154.73;82.88;;;;;;;;;;5115837;28;20051;-60
2021/09/15 06:56:32;;;;;;;157.13;84.82;;;;;;;;;;5130539;28;20052;-61
2021/09/15 06:59:19;;;;;;;160.75;85.00;;;;;;;;;;5113158;28;20544;-60
2021/09/15 07:02:04;;;;;;;161.00;84.53;;;;;;;;;;5098999;28;20048;-61
2021/09/15 07:04:49;;;;;;;159.40;83.82;;;;;;;;;;5098470;28;20048;-60
2021/09/15 07:07:34;;;;;;;178.57;88.47;;;;;;;;;;5115735;28;20123;-60
2021/09/15 07:10:20;;;;;;;175.98;87.78;;;;;;;;;;5115590;28;20043;-60
2021/09/15 07:13:05;;;;;;;164.63;86.45;;;;;;;;;;5115448;28;20442;-60
2021/09/15 07:15:50;;;;;;;141.82;80.45;;;;;;;;;;5115568;28;20122;-61
2021/09/15 07:18:35;;;;;;;157.43;82.68;;;;;;;;;;5131456;28;20058;-61
2021/09/15 07:21:20;;;;;;;152.80;82.07;;;;;;;;;;5102203;28;20055;-60
2021/09/15 07:24:06;;;;;;;135.88;79.40;;;;;;;;;;5085621;28;20143;-60
2021/09/15 07:26:51;;;;;;;153.70;80.63;;;;;;;;;;5118732;28;20420;-61
2021/09/15 07:29:36;;;;;;;132.40;77.25;;;;;;;;;;5112476;28;20051;-61
2021/09/15 07:32:22;;;;;;;153.90;82.88;;;;;;;;;;5111762;28;20072;-62
2021/09/15 07:35:09;;;;;;;141.27;78.22;;;;;;;;;;5097015;28;20056;-61
2021/09/15 07:37:55;;;;;;;136.35;76.57;;;;;;;;;;5115280;28;20051;-60
2021/09/15 07:40:40;;;;;;;127.57;72.47;;;;;;;;;;5115136;28;20051;-60
2021/09/15 07:43:25;;;;;;;143.82;76.90;;;;;;;;;;5115481;28;20123;-60
2021/09/15 07:46:11;;;;;;;134.73;76.18;;;;;;;;;;5115779;28;20529;-60
2021/09/15 07:48:56;;;;;;;139.30;76.00;;;;;;;;;;5114940;28;20119;-60
2021/09/15 07:51:41;;;;;;;125.90;72.68;;;;;;;;;;5114900;28;20115;-61
2021/09/15 07:54:26;;;;;;;124.88;72.25;;;;;;;;;;5119123;28;20048;-61
2021/09/15 07:57:12;;;;;;;131.40;73.63;;;;;;;;;;5099432;28;20060;-61
2021/09/15 07:59:57;;;;;;;118.47;69.72;;;;;;;;;;5082875;28;20079;-61
2021/09/15 08:02:42;;;;;;;124.43;73.90;;;;;;;;;;5083133;28;20062;-61
2021/09/15 08:05:28;;;;;;;109.78;66.75;;;;;;;;;;5107839;28;20127;-60
2021/09/15 08:08:14;;;;;;;110.50;65.85;;;;;;;;;;5115015;28;20048;-60
2021/09/15 08:10:59;;;;;;;102.70;66.90;;;;;;;;;;5114529;28;20052;-60
2021/09/15 08:13:44;;;;;;;101.20;63.95;;;;;;;;;;5114072;28;20047;-60
2021/09/15 08:16:30;;;;;;;113.13;66.35;;;;;;;;;;5114479;28;20495;-60
2021/09/15 08:19:15;;;;;;;92.30;59.70;;;;;;;;;;5114297;28;20098;-60
2021/09/15 08:22:00;;;;;;;89.15;59.08;;;;;;;;;;5114073;28;20059;-60
2021/09/15 08:24:46;;;;;;;84.97;58.72;;;;;;;;;;5114066;28;20059;-59
2021/09/15 08:27:31;;;;;;;90.22;59.20;;;;;;;;;;5114060;28;20048;-61
2021/09/15 08:30:17;;;;;;;82.50;57.38;;;;;;;;;;5113876;28;20051;-60
2021/09/15 08:33:02;;;;;;;83.70;56.28;;;;;;;;;;5114174;28;20055;-60
2021/09/15 08:35:47;;;;;;;87.05;57.97;;;;;;;;;;5113778;28;20050;-60
2021/09/15 08:38:33;;;;;;;89.25;58.45;;;;;;;;;;5113682;28;20108;-59
2021/09/15 08:41:18;;;;;;;80.00;55.47;;;;;;;;;;5113959;28;20062;-60
2021/09/15 08:44:04;;;;;;;76.13;54.45;;;;;;;;;;5113802;28;20051;-59
2021/09/15 08:46:51;;;;;;;75.18;53.10;;;;;;;;;;5113582;28;20044;-60
2021/09/15 08:49:36;;;;;;;74.97;53.50;;;;;;;;;;5113502;28;20055;-60
2021/09/15 08:52:21;;;;;;;77.38;54.85;;;;;;;;;;5105086;28;20119;-62
2021/09/15 08:55:07;;;;;;;72.32;52.13;;;;;;;;;;5123597;28;20056;-60
2021/09/15 08:57:52;;;;;;;59.53;47.70;;;;;;;;;;5113724;28;20054;-60
2021/09/15 09:00:37;;;;;;;68.80;51.70;;;;;;;;;;5118002;28;20056;-61
2021/09/15 09:03:34;;;;;;;63.05;49.10;;;;;;;;;;5103372;28;20039;-60
2021/09/15 09:06:23;;;;;;;69.80;49.90;;;;;;;;;;5113654;28;20127;-60
2021/09/15 09:09:09;;;;;;;56.75;46.63;;;;;;;;;;5113717;28;20047;-60
2021/09/15 09:12:01;;;;;;;58.75;46.65;;;;;;;;;;5098009;28;20051;-60
2021/09/15 09:14:46;;;;;;;49.95;41.63;;;;;;;;;;5113067;28;20416;-60
2021/09/15 09:17:33;;;;;;;49.90;42.58;;;;;;;;;;5113195;28;20055;-60
2021/09/15 09:20:27;;;;;;;45.88;38.45;;;;;;;;;;5112902;28;20508;-60
2021/09/15 09:23:15;;;;;;;45.70;39.75;;;;;;;;;;5113194;28;20052;-60
2021/09/15 09:26:01;;;;;;;47.92;39.08;;;;;;;;;;5118204;28;20059;-61
2021/09/15 09:28:46;;;;;;;47.95;41.05;;;;;;;;;;5110196;28;20073;-61
2021/09/15 09:31:32;;;;;;;46.00;39.08;;;;;;;;;;5089119;28;20056;-59
2021/09/15 09:34:19;;;;;;;48.67;36.80;;;;;;;;;;5097958;28;20411;-60
2021/09/15 09:37:06;;;;;;;40.80;36.35;;;;;;;;;;5113272;28;20047;-60
2021/09/15 09:39:51;;;;;;;39.55;34.08;;;;;;;;;;5113036;28;20047;-59
2021/09/15 09:42:38;;;;;;;36.20;32.13;;;;;;;;;;5113157;28;20507;-59
2021/09/15 09:45:28;;;;;;;37.15;33.10;;;;;;;;;;5097840;28;20051;-59
2021/09/15 09:48:13;;;;;;;40.35;34.15;;;;;;;;;;5112360;28;20504;-59
2021/09/15 09:50:58;;;;;;;37.92;33.72;;;;;;;;;;5091020;22;20048;-62
2021/09/15 09:53:43;;;;;;;37.67;32.25;;;;;;;;;;5071743;28;20124;-62
2021/09/15 09:56:28;;;;;;;37.35;32.65;;;;;;;;;;5071182;28;20049;-62
2021/09/15 09:59:13;;;;;;;38.22;33.47;;;;;;;;;;5071971;28;20406;-62
2021/09/15 10:01:59;;;;;;;39.75;35.03;;;;;;;;;;5071520;28;20053;-62
2021/09/15 10:04:45;;;;;;;41.75;35.60;;;;;;;;;;5071807;28;20056;-63
2021/09/15 10:07:30;;;;;;;43.88;35.85;;;;;;;;;;5070935;28;20045;-63
2021/09/15 10:10:16;;;;;;;42.08;33.75;;;;;;;;;;5070750;28;20120;-62
2021/09/15 10:13:02;;;;;;;40.00;34.85;;;;;;;;;;5071790;28;20506;-62
2021/09/15 10:15:49;;;;;;;42.92;34.63;;;;;;;;;;5070706;28;20083;-62
2021/09/15 10:18:34;;;;;;;40.78;34.53;;;;;;;;;;5071800;28;20094;-62
2021/09/15 10:21:19;;;;;;;41.65;35.70;;;;;;;;;;5071944;28;20080;-62
2021/09/15 10:24:04;;;;;;;41.95;35.05;;;;;;;;;;5070630;28;20052;-63
2021/09/15 10:26:53;;;;;;;41.95;35.13;;;;;;;;;;5071590;28;20091;-62
2021/09/15 10:29:41;;;;;;;40.78;36.28;;;;;;;;;;5070894;28;20052;-62
2021/09/15 10:32:32;;;;;;;38.22;33.90;;;;;;;;;;5071725;28;20056;-62
2021/09/15 10:35:36;;;;;;;38.97;34.88;;;;;;;;;;5071341;28;20120;-62
2021/09/15 10:38:40;;;;;;;43.30;34.97;;;;;;;;;;5071563;28;20498;-62
2021/09/15 10:41:34;;;;;;;44.42;36.25;;;;;;;;;;5070526;28;20048;-62
2021/09/15 10:44:21;;;;;;;40.58;35.45;;;;;;;;;;5071404;28;20060;-63
2021/09/15 10:47:16;;;;;;;41.50;35.42;;;;;;;;;;5071516;28;20096;-63
2021/09/15 10:50:01;;;;;;;41.55;34.50;;;;;;;;;;5071573;28;20057;-63
2021/09/15 10:52:47;;;;;;;42.42;35.05;;;;;;;;;;5071644;28;20044;-63
2021/09/15 10:55:51;;;;;;;42.10;35.17;;;;;;;;;;5071259;28;20506;-63
2021/09/15 10:58:44;;;;;;;43.10;37.38;;;;;;;;;;5071590;28;20056;-63
2021/09/15 11:01:38;;;;;;;45.53;38.13;;;;;;;;;;5071366;28;20496;-63
2021/09/15 11:04:43;;;;;;;46.10;37.05;;;;;;;;;;5071011;28;20060;-63
2021/09/15 11:07:47;;;;;;;48.30;37.65;;;;;;;;;;5071313;28;20052;-63
2021/09/15 11:10:38;;;;;;;50.75;39.50;;;;;;;;;;5071176;28;20053;-63
2021/09/15 11:13:26;;;;;;;48.33;38.05;;;;;;;;;;5071406;28;20049;-62
2021/09/15 11:16:24;;;;;;;54.88;39.63;;;;;;;;;;5074961;28;20106;-62
2021/09/15 11:19:10;;;;;;;50.80;38.10;;;;;;;;;;5074924;28;20094;-62
2021/09/15 11:21:57;;;;;;;49.03;38.83;;;;;;;;;;5074877;28;20056;-62
2021/09/15 11:24:42;;;;;;;51.55;39.42;;;;;;;;;;5074435;28;20517;-62
2021/09/15 11:27:27;;;;;;;46.60;36.05;;;;;;;;;;5074504;28;20136;-62
2021/09/15 11:30:13;;;;;;;53.92;40.70;;;;;;;;;;5074452;28;20503;-62
2021/09/15 11:32:58;;;;;;;46.33;35.53;;;;;;;;;;5074607;28;20048;-62
2021/09/15 11:35:43;;;;;;;45.88;35.60;;;;;;;;;;5074190;28;20049;-62
2021/09/15 11:38:30;;;;;;;44.88;33.47;;;;;;;;;;5074581;28;20057;-62
2021/09/15 11:41:15;;;;;;;39.50;32.05;;;;;;;;;;5074427;28;20052;-63
2021/09/15 11:44:01;;;;;;;41.47;32.15;;;;;;;;;;5074092;28;20102;-63
2021/09/15 11:46:46;;;;;;;34.78;29.63;;;;;;;;;;5074711;28;20057;-62
2021/09/15 11:49:34;;;;;;;33.08;27.52;;;;;;;;;;5074159;28;20127;-62
2021/09/15 11:52:21;;;;;;;32.58;25.90;;;;;;;;;;5074102;28;20052;-63
2021/09/15 11:55:10;;;;;;;30.58;24.77;;;;;;;;;;5074049;28;20056;-63
2021/09/15 11:58:00;;;;;;;28.35;23.00;;;;;;;;;;5073237;28;20049;-63
2021/09/15 12:00:45;;;;;;;29.33;23.15;;;;;;;;;;5073906;28;20053;-63
2021/09/15 12:03:30;;;;;;;26.67;21.65;;;;;;;;;;5073876;28;20048;-62
2021/09/15 12:06:16;;;;;;;23.95;20.25;;;;;;;;;;5073051;28;20044;-63
2021/09/15 12:09:01;;;;;;;23.75;20.13;;;;;;;;;;5073722;28;20135;-63
2021/09/15 12:11:48;;;;;;;26.20;21.67;;;;;;;;;;5073061;28;20053;-63
2021/09/15 12:14:34;;;;;;;26.25;20.73;;;;;;;;;;5073583;28;20049;-63
2021/09/15 12:17:19;;;;;;;21.88;19.58;;;;;;;;;;5073584;28;20048;-63
2021/09/15 12:20:05;;;;;;;22.63;18.15;;;;;;;;;;5073764;28;20052;-63
2021/09/15 12:22:53;;;;;;;23.95;20.20;;;;;;;;;;5073742;28;20452;-63
2021/09/15 12:25:38;;;;;;;22.38;20.00;;;;;;;;;;5073035;28;20060;-63
2021/09/15 12:28:24;;;;;;;25.15;21.17;;;;;;;;;;5073580;28;20052;-63
2021/09/15 12:31:15;;;;;;;24.38;19.02;;;;;;;;;;5073411;28;20052;-63
2021/09/15 12:34:03;;;;;;;21.52;18.70;;;;;;;;;;5073082;28;20052;-63
2021/09/15 12:36:48;;;;;;;22.20;18.75;;;;;;;;;;5073463;28;20056;-63
2021/09/15 12:39:33;;;;;;;20.60;17.75;;;;;;;;;;5073311;28;20127;-63
2021/09/15 12:42:22;;;;;;;21.00;18.80;;;;;;;;;;5072152;28;20053;-63
2021/09/15 12:45:09;;;;;;;20.42;17.38;;;;;;;;;;5073031;28;20119;-63
2021/09/15 12:47:54;;;;;;;21.08;18.38;;;;;;;;;;5073056;28;20049;-63
2021/09/15 12:50:39;;;;;;;24.10;18.80;;;;;;;;;;5072750;28;20044;-63
2021/09/15 12:53:24;;;;;;;22.00;17.42;;;;;;;;;;5071800;28;20545;-63
2021/09/15 12:56:09;;;;;;;18.05;16.20;;;;;;;;;;5073061;28;20045;-63
2021/09/15 12:58:55;;;;;;;16.58;14.35;;;;;;;;;;5072764;28;20086;-63
2021/09/15 13:01:40;;;;;;;14.80;13.27;;;;;;;;;;5072964;28;20119;-63
2021/09/15 13:04:25;;;;;;;14.07;12.57;;;;;;;;;;5072614;28;20048;-63
2021/09/15 13:07:11;;;;;;;12.95;11.63;;;;;;;;;;5072634;28;20052;-63
2021/09/15 13:09:56;;;;;;;16.52;12.90;;;;;;;;;;5072786;28;20473;-63
2021/09/15 13:12:41;;;;;;;14.20;12.40;;;;;;;;;;5072595;28;20503;-63
2021/09/15 13:15:27;;;;;;;14.82;13.23;;;;;;;;;;5072321;28;20048;-63
2021/09/15 13:18:12;;;;;;;13.32;11.93;;;;;;;;;;5072760;28;20053;-63
2021/09/15 13:20:57;;;;;;;13.35;12.05;;;;;;;;;;5072553;28;20127;-63
2021/09/15 13:23:43;;;;;;;14.77;13.10;;;;;;;;;;5072182;28;20052;-63
2021/09/15 13:26:30;;;;;;;13.43;11.77;;;;;;;;;;5072588;28;20056;-63
2021/09/15 13:29:15;;;;;;;14.70;12.50;;;;;;;;;;5072358;28;20119;-64
2021/09/15 13:32:00;;;;;;;15.00;13.60;;;;;;;;;;5072337;28;20052;-64
2021/09/15 13:34:45;;;;;;;14.82;12.95;;;;;;;;;;5072298;28;20048;-64
2021/09/15 13:37:31;;;;;;;13.95;12.45;;;;;;;;;;5071800;28;20048;-63
2021/09/15 13:40:16;;;;;;;12.15;11.00;;;;;;;;;;5072212;28;20413;-64
2021/09/15 13:43:01;;;;;;;12.40;11.02;;;;;;;;;;5072459;28;20061;-63
2021/09/15 13:45:47;;;;;;;10.40;9.40;;;;;;;;;;5071927;28;20048;-64
2021/09/15 13:48:32;;;;;;;11.05;9.82;;;;;;;;;;5072057;28;20123;-64
2021/09/15 13:51:17;;;;;;;9.43;8.45;;;;;;;;;;5071987;28;20465;-64
2021/09/15 13:54:03;;;;;;;9.63;8.07;;;;;;;;;;5072005;28;20052;-64
2021/09/15 13:56:48;;;;;;;8.05;6.85;;;;;;;;;;5072065;28;20044;-63
2021/09/15 13:59:33;;;;;;;7.07;6.40;;;;;;;;;;5072076;28;20064;-63
2021/09/15 14:02:18;;;;;;;10.95;6.72;;;;;;;;;;5072141;28;20048;-63
2021/09/15 14:05:06;;;;;;;6.65;6.05;;;;;;;;;;5071749;28;20048;-63
2021/09/15 14:07:51;;;;;;;7.03;5.68;;;;;;;;;;5071761;28;20052;-63
2021/09/15 14:10:37;;;;;;;7.28;6.47;;;;;;;;;;5071963;28;20053;-63
2021/09/15 14:13:22;;;;;;;6.40;5.18;;;;;;;;;;5072014;28;20053;-63
2021/09/15 14:16:07;;;;;;;5.63;5.13;;;;;;;;;;5071737;28;20057;-63
2021/09/15 14:18:52;;;;;;;5.97;5.43;;;;;;;;;;5071909;28;20053;-63
2021/09/15 14:21:38;;;;;;;6.47;5.82;;;;;;;;;;5071880;28;20052;-64
2021/09/15 14:24:23;;;;;;;7.70;6.15;;;;;;;;;;5071463;28;20060;-63
2021/09/15 14:27:08;;;;;;;6.50;5.53;;;;;;;;;;5071921;28;20120;-64
2021/09/15 14:29:54;;;;;;;7.88;6.75;;;;;;;;;;5071659;28;20053;-63
2021/09/15 14:32:39;;;;;;;6.88;6.13;;;;;;;;;;5071606;28;20048;-64
2021/09/15 14:35:24;;;;;;;7.10;5.82;;;;;;;;;;5071583;28;20052;-64
2021/09/15 14:38:10;;;;;;;7.10;6.10;;;;;;;;;;5071947;28;20056;-64
2021/09/15 14:40:55;;;;;;;6.38;4.90;;;;;;;;;;5071444;28;20445;-64
2021/09/15 14:43:41;;;;;;;6.53;4.63;;;;;;;;;;5071276;28;20518;-64
2021/09/15 14:46:26;;;;;;;8.80;5.32;;;;;;;;;;5071651;28;20049;-64
2021/09/15 14:49:13;;;;;;;6.53;4.60;;;;;;;;;;5073690;28;20074;-64
2021/09/15 14:51:58;;;;;;;5.38;4.35;;;;;;;;;;5075512;28;20052;-63
2021/09/15 14:54:44;;;;;;;5.25;4.57;;;;;;;;;;5075161;28;20497;-63
2021/09/15 14:57:29;;;;;;;6.85;5.00;;;;;;;;;;5075194;28;20498;-63
2021/09/15 15:00:14;;;;;;;8.00;5.72;;;;;;;;;;5075308;28;20052;-63
2021/09/15 15:02:59;;;;;;;6.70;6.10;;;;;;;;;;5075224;28;20049;-63
2021/09/15 15:05:45;;;;;;;8.82;7.65;;;;;;;;;;5074882;28;20057;-63
2021/09/15 15:08:30;;;;;;;6.63;5.93;;;;;;;;;;5075247;28;20048;-63
2021/09/15 15:11:16;;;;;;;7.15;5.90;;;;;;;;;;5075041;28;20084;-63
2021/09/15 15:14:01;;;;;;;9.82;8.00;;;;;;;;;;5074684;28;20052;-63
2021/09/15 15:16:47;;;;;;;8.43;7.03;;;;;;;;;;5074832;28;20522;-63
2021/09/15 15:19:32;;;;;;;11.20;9.48;;;;;;;;;;5074915;28;20124;-63
2021/09/15 15:22:18;;;;;;;11.60;10.50;;;;;;;;;;5074799;28;20053;-63
2021/09/15 15:25:04;;;;;;;11.68;10.02;;;;;;;;;;5074492;28;20052;-63
2021/09/15 15:27:49;;;;;;;12.88;10.90;;;;;;;;;;5074931;28;20048;-64
2021/09/15 15:30:35;;;;;;;14.60;11.80;;;;;;;;;;5074937;28;20045;-63
2021/09/15 15:33:20;;;;;;;14.07;12.15;;;;;;;;;;5075154;28;20095;-64
2021/09/15 15:36:06;;;;;;;12.07;8.73;;;;;;;;;;5074506;28;20502;-63
2021/09/15 15:38:51;;;;;;;8.90;5.28;;;;;;;;;;5073484;28;20506;-63
2021/09/15 15:41:36;;;;;;;8.57;5.25;;;;;;;;;;5075032;28;20053;-63
2021/09/15 15:44:22;;;;;;;6.03;4.10;;;;;;;;;;5074250;28;20053;-63
2021/09/15 15:47:07;;;;;;;4.50;2.40;;;;;;;;;;5074317;28;20052;-63
2021/09/15 15:49:52;;;;;;;7.20;3.33;;;;;;;;;;5100251;22;20044;-61
2021/09/15 15:52:38;;;;;;;4.70;1.88;;;;;;;;;;5115041;28;20051;-61
2021/09/15 15:55:23;;;;;;;4.97;2.28;;;;;;;;;;5114918;28;20173;-61
2021/09/15 15:58:08;;;;;;;6.38;2.25;;;;;;;;;;5114655;28;20051;-61
2021/09/15 16:00:54;;;;;;;5.80;1.95;;;;;;;;;;5114133;28;20055;-61
2021/09/15 16:03:39;;;;;;;4.82;1.83;;;;;;;;;;5114776;28;20051;-61
2021/09/15 16:06:25;;;;;;;4.45;1.73;;;;;;;;;;5116359;28;20118;-62
2021/09/15 16:09:10;;;;;;;5.07;1.92;;;;;;;;;;5108811;28;20083;-61
2021/09/15 16:11:55;;;;;;;4.93;2.22;;;;;;;;;;5112405;28;20075;-62
2021/09/15 16:14:40;;;;;;;5.28;1.52;;;;;;;;;;5096593;28;20051;-62
2021/09/15 16:17:26;;;;;;;5.45;1.90;;;;;;;;;;5099091;28;20055;-61
2021/09/15 16:20:11;;;;;;;5.72;1.70;;;;;;;;;;5108242;28;20467;-61
2021/09/15 16:22:57;;;;;;;10.15;2.42;;;;;;;;;;5114240;28;20055;-60
2021/09/15 16:25:42;;;;;;;6.45;1.92;;;;;;;;;;5114194;28;20051;-61